Date,TemperatureHighF,TemperatureAvgF,TemperatureLowF,DewpointHighF,DewpointAvgF,DewpointLowF,HumidityHigh,HumidityAvg,HumidityLow,PressureMaxIn,PressureMinIn,WindSpeedMaxMPH,WindSpeedAvgMPH,GustSpeedMaxMPH,PrecipitationSumIn
2013-5-1,88.1,74.2,59.8,46.0,34.0,25.6,50,24,16,30.05,29.82,16,4,22,0.00
2013-5-2,93.6,77.0,59.2,43.5,35.1,24.7,49,23,14,30.13,30.02,11,2,14,0.00
2013-5-3,94.1,74.0,55.7,49.7,42.0,32.8,54,33,17,30.05,29.74,9,1,12,0.00
2013-5-4,92.2,72.1,56.1,49.8,43.5,37.9,77,40,19,29.74,29.50,10,1,12,0.00
2013-5-5,71.9,60.0,52.0,51.6,48.9,46.0,82,67,48,29.78,29.53,10,1,15,0.00
2013-5-6,72.3,61.5,53.5,56.0,51.3,48.8,85,70,50,29.94,29.78,7,1,9,0.00
2013-5-7,76.2,63.6,54.6,54.7,51.6,47.0,86,67,42,30.00,29.93,7,1,12,0.00
2013-5-8,70.1,58.5,51.9,54.0,50.5,47.9,88,76,54,30.10,30.00,6,1,12,0.00
2013-5-9,76.4,61.3,49.6,56.4,51.3,46.8,92,72,50,30.12,30.03,8,1,10,0.00
2013-5-10,84.1,65.2,49.3,61.9,53.5,47.0,92,69,46,30.14,30.04,7,1,10,0.00
2013-5-11,94.3,71.5,50.7,64.7,55.2,48.5,93,61,26,30.09,29.98,7,1,12,0.00
2013-5-12,90.4,71.5,51.5,61.4,52.0,43.0,87,54,32,30.09,29.97,8,1,11,0.00
2013-5-13,89.9,69.8,49.9,60.5,53.2,45.6,87,58,34,30.03,29.89,8,1,14,0.00
2013-5-14,82.0,66.7,53.7,57.5,51.2,45.2,84,60,35,29.92,29.86,7,1,16,0.00
2013-5-15,73.1,61.7,50.2,51.7,47.8,43.8,80,61,45,29.99,29.91,9,2,11,0.00
2013-5-16,73.2,62.1,53.7,55.8,51.5,48.0,82,69,50,29.99,29.91,9,2,12,0.00
2013-5-17,73.2,60.4,50.7,50.5,46.9,43.5,83,63,41,30.03,29.93,10,2,11,0.00
2013-5-18,80.8,64.8,47.6,53.8,49.2,43.0,89,60,35,30.09,30.02,7,1,11,0.00
2013-5-19,87.5,69.4,49.6,51.1,46.8,42.6,84,49,23,30.09,29.93,8,1,13,0.00
2013-5-20,93.4,73.5,53.9,49.5,44.4,39.4,67,40,20,29.97,29.87,8,1,13,0.00
2013-5-21,77.7,64.6,53.3,51.0,45.3,40.6,75,52,28,29.94,29.85,8,2,18,0.00
2013-5-22,72.9,57.4,40.6,43.0,36.7,30.7,79,50,23,29.99,29.86,8,1,12,0.00
2013-5-23,74.6,60.1,47.4,47.5,42.8,39.6,80,55,29,29.96,29.87,6,1,10,0.00
2013-5-24,76.1,60.8,45.6,47.0,42.9,38.4,84,55,26,29.97,29.89,11,1,11,0.00
2013-5-25,72.9,59.5,46.1,50.0,46.4,41.2,86,64,43,30.00,29.91,7,1,12,0.00
2013-5-26,75.0,62.8,53.6,54.3,51.2,47.1,89,67,46,30.09,29.99,10,2,13,0.00
2013-5-27,65.8,59.3,52.7,57.5,51.9,45.5,92,77,65,30.08,29.96,8,1,14,0.02
2013-5-28,77.9,64.9,56.4,58.1,55.3,51.2,93,73,45,29.97,29.87,10,1,12,0.00
2013-5-29,76.5,66.2,57.7,56.6,52.1,46.1,80,61,48,29.93,29.85,9,1,10,0.00
2013-5-30,83.5,67.1,49.2,52.6,48.4,44.4,85,54,29,29.95,29.89,7,1,12,0.00
2013-5-31,93.3,73.2,50.7,53.2,49.0,43.8,78,47,23,29.98,29.85,9,1,11,0.00